sensor_id;sensor_type;location;lat;lon;timestamp;P1;durP1;ratioP1;P2;durP2;ratioP2
69625;SDS011;56847;51.984;5.088;2022-08-21T04:02:32;17.38;;;8.30;;
69625;SDS011;56847;51.984;5.088;2022-08-21T04:04:59;20.73;;;8.65;;
69625;SDS011;56847;51.984;5.088;2022-08-21T04:07:26;13.10;;;8.23;;
69625;SDS011;56847;51.984;5.088;2022-08-21T04:09:53;12.88;;;7.60;;
69625;SDS011;56847;51.984;5.088;2022-08-21T04:12:20;14.10;;;7.60;;
69625;SDS011;56847;51.984;5.088;2022-08-21T04:14:47;14.77;;;7.43;;
69625;SDS011;56847;51.984;5.088;2022-08-21T04:17:14;13.65;;;7.65;;
69625;SDS011;56847;51.984;5.088;2022-08-21T04:19:41;16.60;;;7.57;;
69625;SDS011;56847;51.984;5.088;2022-08-21T04:22:08;13.82;;;8.32;;
69625;SDS011;56847;51.984;5.088;2022-08-21T04:24:35;11.93;;;7.60;;
69625;SDS011;56847;51.984;5.088;2022-08-21T04:27:02;16.15;;;8.77;;
69625;SDS011;56847;51.984;5.088;2022-08-21T04:29:29;20.77;;;7.90;;
69625;SDS011;56847;51.984;5.088;2022-08-21T04:31:56;17.60;;;7.70;;
69625;SDS011;56847;51.984;5.088;2022-08-21T04:34:22;17.23;;;7.90;;
69625;SDS011;56847;51.984;5.088;2022-08-21T04:36:49;17.75;;;7.28;;
69625;SDS011;56847;51.984;5.088;2022-08-21T04:39:16;13.13;;;7.95;;
69625;SDS011;56847;51.984;5.088;2022-08-21T04:41:43;12.38;;;7.60;;
69625;SDS011;56847;51.984;5.088;2022-08-21T04:44:10;16.60;;;8.93;;
69625;SDS011;56847;51.984;5.088;2022-08-21T04:46:37;19.48;;;8.38;;
69625;SDS011;56847;51.984;5.088;2022-08-21T04:49:04;17.40;;;8.13;;
69625;SDS011;56847;51.984;5.088;2022-08-21T04:51:32;16.20;;;8.13;;
69625;SDS011;56847;51.984;5.088;2022-08-21T04:54:10;12.50;;;7.63;;
69625;SDS011;56847;51.984;5.088;2022-08-21T04:56:48;11.57;;;8.40;;
69625;SDS011;56847;51.984;5.088;2022-08-21T04:59:27;15.43;;;8.25;;
69625;SDS011;56847;51.984;5.088;2022-08-21T05:01:59;16.63;;;7.28;;
69625;SDS011;56847;51.984;5.088;2022-08-21T05:04:28;14.32;;;8.23;;
69625;SDS011;56847;51.984;5.088;2022-08-21T05:06:59;12.85;;;6.95;;
69625;SDS011;56847;51.984;5.088;2022-08-21T05:09:32;14.13;;;7.53;;
69625;SDS011;56847;51.984;5.088;2022-08-21T05:12:01;12.45;;;6.90;;
69625;SDS011;56847;51.984;5.088;2022-08-21T05:14:32;16.77;;;7.85;;
69625;SDS011;56847;51.984;5.088;2022-08-21T05:17:00;14.02;;;7.35;;
69625;SDS011;56847;51.984;5.088;2022-08-21T05:19:27;14.38;;;7.30;;
69625;SDS011;56847;51.984;5.088;2022-08-21T05:21:54;20.33;;;8.03;;
69625;SDS011;56847;51.984;5.088;2022-08-21T05:24:21;17.08;;;7.90;;
69625;SDS011;56847;51.984;5.088;2022-08-21T05:26:48;11.07;;;7.20;;
69625;SDS011;56847;51.984;5.088;2022-08-21T05:29:15;16.10;;;7.72;;
69625;SDS011;56847;51.984;5.088;2022-08-21T05:31:44;16.65;;;7.53;;
69625;SDS011;56847;51.984;5.088;2022-08-21T05:34:22;12.17;;;8.50;;
69625;SDS011;56847;51.984;5.088;2022-08-21T05:36:50;12.48;;;7.15;;
69625;SDS011;56847;51.984;5.088;2022-08-21T05:39:17;19.40;;;7.75;;
69625;SDS011;56847;51.984;5.088;2022-08-21T05:41:44;15.68;;;7.57;;
69625;SDS011;56847;51.984;5.088;2022-08-21T05:44:11;16.08;;;8.10;;
69625;SDS011;56847;51.984;5.088;2022-08-21T05:46:38;12.67;;;7.37;;
69625;SDS011;56847;51.984;5.088;2022-08-21T05:49:05;16.73;;;6.75;;
69625;SDS011;56847;51.984;5.088;2022-08-21T05:51:32;16.42;;;7.03;;
69625;SDS011;56847;51.984;5.088;2022-08-21T05:53:59;13.23;;;7.22;;
69625;SDS011;56847;51.984;5.088;2022-08-21T05:56:26;17.25;;;7.38;;
69625;SDS011;56847;51.984;5.088;2022-08-21T05:58:53;13.43;;;6.97;;
69625;SDS011;56847;51.984;5.088;2022-08-21T06:01:21;20.52;;;7.25;;
69625;SDS011;56847;51.984;5.088;2022-08-21T06:03:48;18.17;;;6.90;;
69625;SDS011;56847;51.984;5.088;2022-08-21T06:06:16;17.15;;;6.97;;
69625;SDS011;56847;51.984;5.088;2022-08-21T06:08:43;15.27;;;6.45;;
69625;SDS011;56847;51.984;5.088;2022-08-21T06:11:10;13.63;;;6.70;;
69625;SDS011;56847;51.984;5.088;2022-08-21T06:13:37;16.40;;;6.72;;
69625;SDS011;56847;51.984;5.088;2022-08-21T06:16:09;16.33;;;7.80;;
69625;SDS011;56847;51.984;5.088;2022-08-21T06:18:41;15.73;;;7.53;;
69625;SDS011;56847;51.984;5.088;2022-08-21T06:21:11;15.15;;;6.35;;
69625;SDS011;56847;51.984;5.088;2022-08-21T06:23:40;15.03;;;6.07;;
69625;SDS011;56847;51.984;5.088;2022-08-21T06:26:09;18.58;;;7.30;;
69625;SDS011;56847;51.984;5.088;2022-08-21T06:28:38;16.30;;;7.28;;
69625;SDS011;56847;51.984;5.088;2022-08-21T06:31:16;21.67;;;6.72;;
69625;SDS011;56847;51.984;5.088;2022-08-21T06:33:45;20.33;;;6.65;;
69625;SDS011;56847;51.984;5.088;2022-08-21T06:36:13;18.87;;;7.30;;
69625;SDS011;56847;51.984;5.088;2022-08-21T06:38:41;18.52;;;6.03;;
69625;SDS011;56847;51.984;5.088;2022-08-21T06:41:17;12.52;;;5.65;;
69625;SDS011;56847;51.984;5.088;2022-08-21T06:43:52;14.73;;;5.47;;
69625;SDS011;56847;51.984;5.088;2022-08-21T06:46:20;23.90;;;6.63;;
69625;SDS011;56847;51.984;5.088;2022-08-21T06:48:47;21.60;;;6.67;;
69625;SDS011;56847;51.984;5.088;2022-08-21T06:51:14;18.83;;;6.68;;
69625;SDS011;56847;51.984;5.088;2022-08-21T06:53:41;16.58;;;6.68;;
69625;SDS011;56847;51.984;5.088;2022-08-21T06:56:08;23.58;;;6.55;;
69625;SDS011;56847;51.984;5.088;2022-08-21T06:58:35;15.98;;;6.03;;
69625;SDS011;56847;51.984;5.088;2022-08-21T07:01:02;19.43;;;6.63;;
69625;SDS011;56847;51.984;5.088;2022-08-21T07:03:31;22.80;;;6.28;;
69625;SDS011;56847;51.984;5.088;2022-08-21T07:06:00;15.88;;;6.85;;
69625;SDS011;56847;51.984;5.088;2022-08-21T07:08:28;11.52;;;5.68;;
69625;SDS011;56847;51.984;5.088;2022-08-21T07:10:56;19.30;;;6.63;;
69625;SDS011;56847;51.984;5.088;2022-08-21T07:13:25;19.27;;;6.87;;
69625;SDS011;56847;51.984;5.088;2022-08-21T07:15:53;17.52;;;6.07;;
69625;SDS011;56847;51.984;5.088;2022-08-21T07:18:20;19.42;;;5.90;;
69625;SDS011;56847;51.984;5.088;2022-08-21T07:20:47;14.80;;;6.00;;
69625;SDS011;56847;51.984;5.088;2022-08-21T07:23:18;17.08;;;6.30;;
69625;SDS011;56847;51.984;5.088;2022-08-21T07:25:50;17.30;;;6.20;;
69625;SDS011;56847;51.984;5.088;2022-08-21T07:28:17;19.88;;;6.80;;
69625;SDS011;56847;51.984;5.088;2022-08-21T07:30:45;16.13;;;6.22;;
69625;SDS011;56847;51.984;5.088;2022-08-21T07:33:12;14.68;;;5.57;;
69625;SDS011;56847;51.984;5.088;2022-08-21T07:35:39;18.63;;;5.78;;
69625;SDS011;56847;51.984;5.088;2022-08-21T07:38:05;14.43;;;6.43;;
69625;SDS011;56847;51.984;5.088;2022-08-21T07:40:32;16.92;;;6.60;;
69625;SDS011;56847;51.984;5.088;2022-08-21T07:42:59;25.23;;;6.53;;
69625;SDS011;56847;51.984;5.088;2022-08-21T07:45:27;23.73;;;6.53;;
69625;SDS011;56847;51.984;5.088;2022-08-21T07:47:54;19.67;;;5.68;;
69625;SDS011;56847;51.984;5.088;2022-08-21T07:50:23;19.73;;;6.93;;
69625;SDS011;56847;51.984;5.088;2022-08-21T07:52:50;22.20;;;7.15;;
69625;SDS011;56847;51.984;5.088;2022-08-21T07:55:18;19.40;;;5.72;;
69625;SDS011;56847;51.984;5.088;2022-08-21T07:57:46;17.48;;;6.18;;
69625;SDS011;56847;51.984;5.088;2022-08-21T08:00:15;18.75;;;5.90;;
69625;SDS011;56847;51.984;5.088;2022-08-21T08:02:49;18.33;;;6.10;;
69625;SDS011;56847;51.984;5.088;2022-08-21T08:05:18;19.42;;;6.63;;
69625;SDS011;56847;51.984;5.088;2022-08-21T08:07:48;17.23;;;5.65;;
69625;SDS011;56847;51.984;5.088;2022-08-21T08:10:15;18.55;;;6.10;;
69625;SDS011;56847;51.984;5.088;2022-08-21T08:12:42;18.42;;;5.53;;
69625;SDS011;56847;51.984;5.088;2022-08-21T08:15:16;12.10;;;4.83;;
69625;SDS011;56847;51.984;5.088;2022-08-21T08:17:46;16.35;;;6.32;;
69625;SDS011;56847;51.984;5.088;2022-08-21T08:20:14;14.07;;;5.30;;
69625;SDS011;56847;51.984;5.088;2022-08-21T08:22:44;23.15;;;5.68;;
69625;SDS011;56847;51.984;5.088;2022-08-21T08:25:16;15.90;;;5.57;;
69625;SDS011;56847;51.984;5.088;2022-08-21T08:27:45;16.73;;;6.00;;
69625;SDS011;56847;51.984;5.088;2022-08-21T08:30:15;14.85;;;5.88;;
69625;SDS011;56847;51.984;5.088;2022-08-21T08:32:45;17.63;;;4.88;;
69625;SDS011;56847;51.984;5.088;2022-08-21T08:35:13;16.35;;;5.80;;
69625;SDS011;56847;51.984;5.088;2022-08-21T08:37:41;25.77;;;6.22;;
69625;SDS011;56847;51.984;5.088;2022-08-21T08:40:18;20.03;;;6.00;;
69625;SDS011;56847;51.984;5.088;2022-08-21T08:42:51;20.92;;;6.05;;
69625;SDS011;56847;51.984;5.088;2022-08-21T08:45:19;22.98;;;5.55;;
69625;SDS011;56847;51.984;5.088;2022-08-21T08:47:57;16.42;;;5.50;;
69625;SDS011;56847;51.984;5.088;2022-08-21T08:54:24;16.97;;;5.10;;
69625;SDS011;56847;51.984;5.088;2022-08-21T08:56:34;20.23;;;5.43;;
69625;SDS011;56847;51.984;5.088;2022-08-21T08:59:15;17.58;;;5.60;;
69625;SDS011;56847;51.984;5.088;2022-08-21T09:01:46;10.55;;;4.50;;
69625;SDS011;56847;51.984;5.088;2022-08-21T09:04:13;21.30;;;4.53;;
69625;SDS011;56847;51.984;5.088;2022-08-21T09:12:24;16.63;;;4.40;;
69625;SDS011;56847;51.984;5.088;2022-08-21T09:28:54;9.35;;;3.85;;
69625;SDS011;56847;51.984;5.088;2022-08-21T09:31:31;13.77;;;4.40;;
69625;SDS011;56847;51.984;5.088;2022-08-21T09:34:04;14.80;;;4.27;;
69625;SDS011;56847;51.984;5.088;2022-08-21T09:36:37;13.68;;;4.45;;
69625;SDS011;56847;51.984;5.088;2022-08-21T09:39:07;14.43;;;3.88;;
69625;SDS011;56847;51.984;5.088;2022-08-21T09:41:36;13.57;;;4.65;;
69625;SDS011;56847;51.984;5.088;2022-08-21T09:44:05;11.40;;;3.63;;
69625;SDS011;56847;51.984;5.088;2022-08-21T09:46:34;13.90;;;3.30;;
69625;SDS011;56847;51.984;5.088;2022-08-21T09:49:03;12.93;;;4.13;;
69625;SDS011;56847;51.984;5.088;2022-08-21T09:51:36;14.57;;;3.58;;
69625;SDS011;56847;51.984;5.088;2022-08-21T09:56:34;13.32;;;3.95;;
69625;SDS011;56847;51.984;5.088;2022-08-21T09:59:32;12.87;;;3.57;;
69625;SDS011;56847;51.984;5.088;2022-08-21T10:04:58;13.88;;;3.47;;
69625;SDS011;56847;51.984;5.088;2022-08-21T10:07:28;13.57;;;3.47;;
69625;SDS011;56847;51.984;5.088;2022-08-21T10:09:57;12.02;;;3.33;;
69625;SDS011;56847;51.984;5.088;2022-08-21T10:12:33;17.80;;;4.17;;
69625;SDS011;56847;51.984;5.088;2022-08-21T10:15:19;11.40;;;3.45;;
69625;SDS011;56847;51.984;5.088;2022-08-21T10:17:57;14.73;;;3.47;;
69625;SDS011;56847;51.984;5.088;2022-08-21T10:23:28;12.57;;;3.10;;
69625;SDS011;56847;51.984;5.088;2022-08-21T10:26:26;8.67;;;3.10;;
69625;SDS011;56847;51.984;5.088;2022-08-21T10:37:10;7.75;;;2.80;;
69625;SDS011;56847;51.984;5.088;2022-08-21T10:45:30;7.97;;;3.00;;
69625;SDS011;56847;51.984;5.088;2022-08-21T10:56:25;7.83;;;2.70;;
69625;SDS011;56847;51.984;5.088;2022-08-21T11:01:34;8.20;;;2.97;;
69625;SDS011;56847;51.984;5.088;2022-08-21T11:06:45;10.32;;;2.88;;
69625;SDS011;56847;51.984;5.088;2022-08-21T11:09:18;14.77;;;3.07;;
69625;SDS011;56847;51.984;5.088;2022-08-21T11:11:48;8.90;;;3.30;;
69625;SDS011;56847;51.984;5.088;2022-08-21T11:17:16;7.13;;;2.15;;
69625;SDS011;56847;51.984;5.088;2022-08-21T11:25:36;6.47;;;2.03;;
69625;SDS011;56847;51.984;5.088;2022-08-21T11:28:13;8.50;;;3.17;;
69625;SDS011;56847;51.984;5.088;2022-08-21T11:31:06;10.73;;;3.10;;
69625;SDS011;56847;51.984;5.088;2022-08-21T11:33:47;7.40;;;2.47;;
69625;SDS011;56847;51.984;5.088;2022-08-21T11:37:04;9.57;;;2.50;;
69625;SDS011;56847;51.984;5.088;2022-08-21T11:40:10;10.20;;;2.53;;
69625;SDS011;56847;51.984;5.088;2022-08-21T11:51:12;10.73;;;3.03;;
69625;SDS011;56847;51.984;5.088;2022-08-21T11:56:57;8.88;;;2.83;;
69625;SDS011;56847;51.984;5.088;2022-08-21T11:59:36;7.28;;;2.30;;
69625;SDS011;56847;51.984;5.088;2022-08-21T12:02:12;7.90;;;2.45;;
69625;SDS011;56847;51.984;5.088;2022-08-21T12:04:46;5.67;;;1.70;;
69625;SDS011;56847;51.984;5.088;2022-08-21T12:10:15;8.70;;;3.30;;
69625;SDS011;56847;51.984;5.088;2022-08-21T12:12:47;8.27;;;2.42;;
69625;SDS011;56847;51.984;5.088;2022-08-21T12:17:54;7.90;;;1.93;;
69625;SDS011;56847;51.984;5.088;2022-08-21T12:20:33;8.00;;;2.50;;
69625;SDS011;56847;51.984;5.088;2022-08-21T12:23:18;6.38;;;1.90;;
69625;SDS011;56847;51.984;5.088;2022-08-21T12:28:30;7.63;;;2.88;;
69625;SDS011;56847;51.984;5.088;2022-08-21T12:30:57;11.80;;;2.90;;
69625;SDS011;56847;51.984;5.088;2022-08-21T12:33:34;10.43;;;2.40;;
69625;SDS011;56847;51.984;5.088;2022-08-21T12:36:10;13.57;;;2.63;;
69625;SDS011;56847;51.984;5.088;2022-08-21T12:38:46;8.07;;;2.35;;
69625;SDS011;56847;51.984;5.088;2022-08-21T12:41:21;7.30;;;2.38;;
69625;SDS011;56847;51.984;5.088;2022-08-21T12:44:11;7.60;;;2.65;;
69625;SDS011;56847;51.984;5.088;2022-08-21T12:47:43;8.43;;;3.07;;
69625;SDS011;56847;51.984;5.088;2022-08-21T12:49:47;7.17;;;2.37;;
69625;SDS011;56847;51.984;5.088;2022-08-21T12:52:35;9.68;;;2.92;;
69625;SDS011;56847;51.984;5.088;2022-08-21T12:55:30;8.23;;;2.05;;
69625;SDS011;56847;51.984;5.088;2022-08-21T12:57:59;6.15;;;2.90;;
69625;SDS011;56847;51.984;5.088;2022-08-21T13:00:28;9.23;;;2.33;;
69625;SDS011;56847;51.984;5.088;2022-08-21T13:02:55;5.47;;;2.33;;
69625;SDS011;56847;51.984;5.088;2022-08-21T13:05:33;7.15;;;2.20;;
69625;SDS011;56847;51.984;5.088;2022-08-21T13:08:05;6.63;;;2.53;;
69625;SDS011;56847;51.984;5.088;2022-08-21T13:10:35;7.60;;;2.83;;
69625;SDS011;56847;51.984;5.088;2022-08-21T13:13:04;11.15;;;3.28;;
69625;SDS011;56847;51.984;5.088;2022-08-21T13:15:38;5.50;;;2.07;;
69625;SDS011;56847;51.984;5.088;2022-08-21T13:18:20;11.33;;;2.97;;
69625;SDS011;56847;51.984;5.088;2022-08-21T13:20:49;6.97;;;2.53;;
69625;SDS011;56847;51.984;5.088;2022-08-21T13:23:23;8.13;;;2.70;;
69625;SDS011;56847;51.984;5.088;2022-08-21T13:25:53;7.20;;;2.22;;
69625;SDS011;56847;51.984;5.088;2022-08-21T13:28:21;7.97;;;2.83;;
69625;SDS011;56847;51.984;5.088;2022-08-21T13:30:52;6.20;;;2.53;;
69625;SDS011;56847;51.984;5.088;2022-08-21T13:33:21;6.90;;;2.50;;
69625;SDS011;56847;51.984;5.088;2022-08-21T13:36:10;15.02;;;3.20;;
69625;SDS011;56847;51.984;5.088;2022-08-21T13:38:41;8.65;;;2.45;;
69625;SDS011;56847;51.984;5.088;2022-08-21T13:41:29;8.27;;;2.60;;
69625;SDS011;56847;51.984;5.088;2022-08-21T13:44:04;5.78;;;2.33;;
69625;SDS011;56847;51.984;5.088;2022-08-21T13:46:48;11.80;;;2.67;;
69625;SDS011;56847;51.984;5.088;2022-08-21T13:49:18;7.57;;;3.08;;
69625;SDS011;56847;51.984;5.088;2022-08-21T13:51:47;7.93;;;3.00;;
69625;SDS011;56847;51.984;5.088;2022-08-21T13:54:29;8.57;;;1.88;;
69625;SDS011;56847;51.984;5.088;2022-08-21T13:57:00;6.30;;;2.45;;
69625;SDS011;56847;51.984;5.088;2022-08-21T13:59:32;7.97;;;2.33;;
69625;SDS011;56847;51.984;5.088;2022-08-21T14:02:12;6.40;;;2.90;;
69625;SDS011;56847;51.984;5.088;2022-08-21T14:04:57;4.38;;;2.33;;
69625;SDS011;56847;51.984;5.088;2022-08-21T14:07:28;9.52;;;3.10;;
69625;SDS011;56847;51.984;5.088;2022-08-21T14:10:03;7.00;;;3.05;;
69625;SDS011;56847;51.984;5.088;2022-08-21T14:12:52;4.28;;;2.50;;
69625;SDS011;56847;51.984;5.088;2022-08-21T14:15:23;8.33;;;2.47;;
69625;SDS011;56847;51.984;5.088;2022-08-21T14:17:55;10.37;;;2.97;;
69625;SDS011;56847;51.984;5.088;2022-08-21T14:20:36;7.07;;;2.65;;
69625;SDS011;56847;51.984;5.088;2022-08-21T14:23:03;9.60;;;2.75;;
69625;SDS011;56847;51.984;5.088;2022-08-21T14:25:36;12.20;;;2.78;;
69625;SDS011;56847;51.984;5.088;2022-08-21T14:33:45;10.38;;;2.80;;
69625;SDS011;56847;51.984;5.088;2022-08-21T14:36:12;7.18;;;2.65;;
69625;SDS011;56847;51.984;5.088;2022-08-21T14:38:39;4.47;;;2.08;;
69625;SDS011;56847;51.984;5.088;2022-08-21T14:41:13;7.75;;;3.28;;
69625;SDS011;56847;51.984;5.088;2022-08-21T14:43:44;8.70;;;2.70;;
69625;SDS011;56847;51.984;5.088;2022-08-21T14:46:12;13.27;;;2.78;;
69625;SDS011;56847;51.984;5.088;2022-08-21T14:48:46;6.55;;;2.85;;
69625;SDS011;56847;51.984;5.088;2022-08-21T14:51:13;9.07;;;2.53;;
69625;SDS011;56847;51.984;5.088;2022-08-21T14:53:40;6.93;;;2.67;;
69625;SDS011;56847;51.984;5.088;2022-08-21T14:56:07;6.47;;;2.87;;
69625;SDS011;56847;51.984;5.088;2022-08-21T14:58:35;9.25;;;2.35;;
69625;SDS011;56847;51.984;5.088;2022-08-21T15:01:05;7.72;;;2.75;;
69625;SDS011;56847;51.984;5.088;2022-08-21T15:03:33;8.13;;;2.42;;
69625;SDS011;56847;51.984;5.088;2022-08-21T15:06:01;9.88;;;2.65;;
69625;SDS011;56847;51.984;5.088;2022-08-21T15:08:29;9.37;;;2.43;;
69625;SDS011;56847;51.984;5.088;2022-08-21T15:10:56;7.73;;;2.20;;
69625;SDS011;56847;51.984;5.088;2022-08-21T15:13:37;5.25;;;2.17;;
69625;SDS011;56847;51.984;5.088;2022-08-21T15:16:05;7.00;;;2.88;;
69625;SDS011;56847;51.984;5.088;2022-08-21T15:18:33;6.65;;;2.53;;
69625;SDS011;56847;51.984;5.088;2022-08-21T15:21:00;9.18;;;2.13;;
69625;SDS011;56847;51.984;5.088;2022-08-21T15:23:27;7.73;;;2.70;;
69625;SDS011;56847;51.984;5.088;2022-08-21T15:25:54;8.07;;;2.83;;
69625;SDS011;56847;51.984;5.088;2022-08-21T15:28:25;6.70;;;2.58;;
69625;SDS011;56847;51.984;5.088;2022-08-21T15:30:57;4.82;;;2.22;;
69625;SDS011;56847;51.984;5.088;2022-08-21T15:33:26;5.78;;;2.22;;
69625;SDS011;56847;51.984;5.088;2022-08-21T15:35:57;5.73;;;2.57;;
69625;SDS011;56847;51.984;5.088;2022-08-21T15:38:24;7.50;;;2.58;;
69625;SDS011;56847;51.984;5.088;2022-08-21T15:40:52;6.03;;;2.80;;
69625;SDS011;56847;51.984;5.088;2022-08-21T15:43:29;5.60;;;2.42;;
69625;SDS011;56847;51.984;5.088;2022-08-21T15:45:59;6.90;;;2.42;;
69625;SDS011;56847;51.984;5.088;2022-08-21T15:48:27;6.40;;;3.00;;
69625;SDS011;56847;51.984;5.088;2022-08-21T15:50:54;6.60;;;2.38;;
69625;SDS011;56847;51.984;5.088;2022-08-21T15:53:21;6.18;;;2.72;;
69625;SDS011;56847;51.984;5.088;2022-08-21T15:55:48;9.82;;;2.80;;
69625;SDS011;56847;51.984;5.088;2022-08-21T15:58:15;9.23;;;3.10;;
69625;SDS011;56847;51.984;5.088;2022-08-21T16:00:43;9.63;;;2.43;;
69625;SDS011;56847;51.984;5.088;2022-08-21T16:03:12;6.50;;;2.63;;
69625;SDS011;56847;51.984;5.088;2022-08-21T16:05:46;8.35;;;3.17;;
69625;SDS011;56847;51.984;5.088;2022-08-21T16:08:15;7.45;;;2.33;;
69625;SDS011;56847;51.984;5.088;2022-08-21T16:10:42;7.90;;;3.13;;
69625;SDS011;56847;51.984;5.088;2022-08-21T16:13:20;8.50;;;4.35;;
69625;SDS011;56847;51.984;5.088;2022-08-21T16:15:54;7.97;;;3.00;;
69625;SDS011;56847;51.984;5.088;2022-08-21T16:18:22;7.27;;;2.43;;
69625;SDS011;56847;51.984;5.088;2022-08-21T16:20:49;6.00;;;2.70;;
69625;SDS011;56847;51.984;5.088;2022-08-21T16:23:16;10.68;;;2.95;;
69625;SDS011;56847;51.984;5.088;2022-08-21T16:25:43;8.05;;;3.15;;
69625;SDS011;56847;51.984;5.088;2022-08-21T16:28:12;9.43;;;3.22;;
69625;SDS011;56847;51.984;5.088;2022-08-21T16:30:44;8.87;;;3.17;;
69625;SDS011;56847;51.984;5.088;2022-08-21T16:33:22;7.88;;;2.25;;
69625;SDS011;56847;51.984;5.088;2022-08-21T16:35:53;9.32;;;3.15;;
69625;SDS011;56847;51.984;5.088;2022-08-21T16:38:20;7.55;;;2.17;;
69625;SDS011;56847;51.984;5.088;2022-08-21T16:40:47;5.78;;;2.88;;
69625;SDS011;56847;51.984;5.088;2022-08-21T16:43:14;7.47;;;3.03;;
69625;SDS011;56847;51.984;5.088;2022-08-21T16:45:42;7.25;;;2.40;;
69625;SDS011;56847;51.984;5.088;2022-08-21T16:48:09;8.57;;;2.90;;
69625;SDS011;56847;51.984;5.088;2022-08-21T16:50:36;11.80;;;2.60;;
69625;SDS011;56847;51.984;5.088;2022-08-21T16:53:04;8.98;;;3.33;;
69625;SDS011;56847;51.984;5.088;2022-08-21T16:55:35;8.43;;;2.97;;
69625;SDS011;56847;51.984;5.088;2022-08-21T16:58:04;13.63;;;3.17;;
69625;SDS011;56847;51.984;5.088;2022-08-21T17:00:35;7.13;;;2.00;;
69625;SDS011;56847;51.984;5.088;2022-08-21T17:03:02;7.40;;;2.85;;
69625;SDS011;56847;51.984;5.088;2022-08-21T17:05:30;11.82;;;2.95;;
69625;SDS011;56847;51.984;5.088;2022-08-21T17:07:57;10.80;;;3.83;;
69625;SDS011;56847;51.984;5.088;2022-08-21T17:10:24;7.07;;;2.55;;
69625;SDS011;56847;51.984;5.088;2022-08-21T17:12:53;10.35;;;3.33;;
69625;SDS011;56847;51.984;5.088;2022-08-21T17:15:32;7.45;;;3.05;;
69625;SDS011;56847;51.984;5.088;2022-08-21T17:18:03;6.05;;;2.80;;
69625;SDS011;56847;51.984;5.088;2022-08-21T17:20:33;6.20;;;2.77;;
69625;SDS011;56847;51.984;5.088;2022-08-21T17:23:03;4.90;;;2.42;;
69625;SDS011;56847;51.984;5.088;2022-08-21T17:25:30;12.38;;;3.40;;
69625;SDS011;56847;51.984;5.088;2022-08-21T17:27:57;13.23;;;3.05;;
69625;SDS011;56847;51.984;5.088;2022-08-21T17:30:24;15.10;;;3.42;;
69625;SDS011;56847;51.984;5.088;2022-08-21T17:32:53;8.73;;;3.07;;
69625;SDS011;56847;51.984;5.088;2022-08-21T17:35:23;8.15;;;3.08;;
69625;SDS011;56847;51.984;5.088;2022-08-21T17:37:50;12.45;;;2.97;;
69625;SDS011;56847;51.984;5.088;2022-08-21T17:40:18;12.75;;;3.80;;
69625;SDS011;56847;51.984;5.088;2022-08-21T17:42:46;8.23;;;3.42;;
69625;SDS011;56847;51.984;5.088;2022-08-21T17:45:15;10.73;;;2.90;;
69625;SDS011;56847;51.984;5.088;2022-08-21T17:47:45;11.35;;;2.72;;
69625;SDS011;56847;51.984;5.088;2022-08-21T17:50:13;6.07;;;3.35;;
69625;SDS011;56847;51.984;5.088;2022-08-21T17:52:48;9.43;;;3.00;;
69625;SDS011;56847;51.984;5.088;2022-08-21T17:55:15;11.48;;;3.25;;
69625;SDS011;56847;51.984;5.088;2022-08-21T17:57:43;11.83;;;2.83;;
69625;SDS011;56847;51.984;5.088;2022-08-21T18:00:12;13.82;;;3.70;;
69625;SDS011;56847;51.984;5.088;2022-08-21T18:02:41;8.77;;;3.20;;
69625;SDS011;56847;51.984;5.088;2022-08-21T18:05:10;12.52;;;3.50;;
69625;SDS011;56847;51.984;5.088;2022-08-21T18:07:39;11.25;;;2.88;;
69625;SDS011;56847;51.984;5.088;2022-08-21T18:10:08;7.17;;;2.90;;
69625;SDS011;56847;51.984;5.088;2022-08-21T18:12:43;9.73;;;2.60;;
69625;SDS011;56847;51.984;5.088;2022-08-21T18:15:14;13.00;;;4.03;;
69625;SDS011;56847;51.984;5.088;2022-08-21T18:17:44;7.70;;;3.10;;
69625;SDS011;56847;51.984;5.088;2022-08-21T18:20:14;14.73;;;3.40;;
69625;SDS011;56847;51.984;5.088;2022-08-21T18:22:44;12.07;;;2.97;;
69625;SDS011;56847;51.984;5.088;2022-08-21T18:25:12;10.00;;;3.58;;
69625;SDS011;56847;51.984;5.088;2022-08-21T18:27:39;10.10;;;3.28;;
69625;SDS011;56847;51.984;5.088;2022-08-21T18:30:13;12.50;;;3.58;;
69625;SDS011;56847;51.984;5.088;2022-08-21T18:32:45;11.13;;;3.83;;
69625;SDS011;56847;51.984;5.088;2022-08-21T18:35:14;10.57;;;2.87;;
69625;SDS011;56847;51.984;5.088;2022-08-21T18:37:42;13.93;;;4.30;;
69625;SDS011;56847;51.984;5.088;2022-08-21T18:40:09;8.18;;;2.97;;
69625;SDS011;56847;51.984;5.088;2022-08-21T18:42:41;13.68;;;3.50;;
69625;SDS011;56847;51.984;5.088;2022-08-21T18:45:25;9.73;;;3.05;;
69625;SDS011;56847;51.984;5.088;2022-08-21T18:47:52;8.60;;;3.00;;
69625;SDS011;56847;51.984;5.088;2022-08-21T18:50:23;10.88;;;3.35;;
69625;SDS011;56847;51.984;5.088;2022-08-21T18:52:52;14.73;;;3.22;;
69625;SDS011;56847;51.984;5.088;2022-08-21T18:55:20;10.02;;;3.53;;
69625;SDS011;56847;51.984;5.088;2022-08-21T18:57:50;9.15;;;2.95;;
69625;SDS011;56847;51.984;5.088;2022-08-21T19:00:27;12.83;;;3.50;;
69625;SDS011;56847;51.984;5.088;2022-08-21T19:02:58;13.00;;;3.33;;
69625;SDS011;56847;51.984;5.088;2022-08-21T19:05:26;10.70;;;3.42;;
69625;SDS011;56847;51.984;5.088;2022-08-21T19:07:53;17.08;;;3.45;;
69625;SDS011;56847;51.984;5.088;2022-08-21T19:10:21;10.77;;;3.35;;
69625;SDS011;56847;51.984;5.088;2022-08-21T19:12:53;15.30;;;3.60;;
69625;SDS011;56847;51.984;5.088;2022-08-21T19:15:26;12.57;;;3.90;;
69625;SDS011;56847;51.984;5.088;2022-08-21T19:17:55;12.75;;;4.13;;
69625;SDS011;56847;51.984;5.088;2022-08-21T19:20:28;10.02;;;3.05;;
69625;SDS011;56847;51.984;5.088;2022-08-21T19:23:00;9.90;;;2.90;;
69625;SDS011;56847;51.984;5.088;2022-08-21T19:25:52;12.07;;;3.57;;
69625;SDS011;56847;51.984;5.088;2022-08-21T19:28:28;11.38;;;3.60;;
69625;SDS011;56847;51.984;5.088;2022-08-21T19:30:59;7.55;;;3.03;;
69625;SDS011;56847;51.984;5.088;2022-08-21T19:34:15;9.40;;;3.80;;
69625;SDS011;56847;51.984;5.088;2022-08-21T19:36:45;9.98;;;3.42;;
69625;SDS011;56847;51.984;5.088;2022-08-21T19:39:13;12.10;;;3.03;;
69625;SDS011;56847;51.984;5.088;2022-08-21T19:41:43;8.30;;;3.35;;
69625;SDS011;56847;51.984;5.088;2022-08-21T19:44:17;12.20;;;3.67;;
69625;SDS011;56847;51.984;5.088;2022-08-21T19:46:51;9.85;;;3.25;;
69625;SDS011;56847;51.984;5.088;2022-08-21T19:49:29;11.88;;;3.97;;
69625;SDS011;56847;51.984;5.088;2022-08-21T19:51:59;14.20;;;3.37;;
69625;SDS011;56847;51.984;5.088;2022-08-21T19:54:38;12.43;;;3.65;;
69625;SDS011;56847;51.984;5.088;2022-08-21T19:57:08;16.30;;;3.40;;
69625;SDS011;56847;51.984;5.088;2022-08-21T19:59:38;12.27;;;3.60;;
69625;SDS011;56847;51.984;5.088;2022-08-21T20:02:09;14.60;;;3.90;;
69625;SDS011;56847;51.984;5.088;2022-08-21T20:04:37;9.10;;;3.77;;
69625;SDS011;56847;51.984;5.088;2022-08-21T20:07:20;11.07;;;3.45;;
69625;SDS011;56847;51.984;5.088;2022-08-21T20:09:53;10.93;;;3.95;;
69625;SDS011;56847;51.984;5.088;2022-08-21T20:12:40;14.48;;;4.30;;
69625;SDS011;56847;51.984;5.088;2022-08-21T20:15:10;12.07;;;4.03;;
69625;SDS011;56847;51.984;5.088;2022-08-21T20:17:48;12.67;;;3.80;;
69625;SDS011;56847;51.984;5.088;2022-08-21T20:20:18;12.75;;;3.58;;
69625;SDS011;56847;51.984;5.088;2022-08-21T20:22:48;12.13;;;3.53;;
69625;SDS011;56847;51.984;5.088;2022-08-21T20:25:15;13.93;;;4.10;;
69625;SDS011;56847;51.984;5.088;2022-08-21T20:27:46;11.43;;;4.40;;
69625;SDS011;56847;51.984;5.088;2022-08-21T20:30:13;12.73;;;4.23;;
69625;SDS011;56847;51.984;5.088;2022-08-21T20:32:48;10.82;;;3.33;;
69625;SDS011;56847;51.984;5.088;2022-08-21T20:35:19;12.45;;;3.47;;
69625;SDS011;56847;51.984;5.088;2022-08-21T20:37:48;13.82;;;3.88;;
69625;SDS011;56847;51.984;5.088;2022-08-21T20:40:24;13.93;;;3.63;;